sensor_id;sensor_type;location;lat;lon;timestamp;temperature;humidity
70321;DHT22;61127;55.826;37.046;2023-07-31T00:00:38;14.65;71.54
70321;DHT22;61127;55.826;37.046;2023-07-31T00:03:04;14.63;71.55
70321;DHT22;61127;55.826;37.046;2023-07-31T00:05:30;14.60;71.73
70321;DHT22;61127;55.826;37.046;2023-07-31T00:07:56;14.60;71.82
70321;DHT22;61127;55.826;37.046;2023-07-31T00:10:22;14.60;71.87
70321;DHT22;61127;55.826;37.046;2023-07-31T00:12:48;14.58;71.72
70321;DHT22;61127;55.826;37.046;2023-07-31T00:15:15;14.57;71.63
70321;DHT22;61127;55.826;37.046;2023-07-31T00:17:40;14.53;71.60
70321;DHT22;61127;55.826;37.046;2023-07-31T00:20:07;14.51;71.65
70321;DHT22;61127;55.826;37.046;2023-07-31T00:22:34;14.48;71.57
70321;DHT22;61127;55.826;37.046;2023-07-31T00:25:00;14.42;71.61
70321;DHT22;61127;55.826;37.046;2023-07-31T00:27:26;14.41;71.67
70321;DHT22;61127;55.826;37.046;2023-07-31T00:29:52;14.37;71.73
70321;DHT22;61127;55.826;37.046;2023-07-31T00:32:18;14.34;71.86
70321;DHT22;61127;55.826;37.046;2023-07-31T00:34:44;14.33;72.00
70321;DHT22;61127;55.826;37.046;2023-07-31T00:37:10;14.30;72.22
70321;DHT22;61127;55.826;37.046;2023-07-31T00:39:36;14.28;72.24
70321;DHT22;61127;55.826;37.046;2023-07-31T00:42:02;14.27;72.15
70321;DHT22;61127;55.826;37.046;2023-07-31T00:44:28;14.23;72.29
70321;DHT22;61127;55.826;37.046;2023-07-31T00:46:57;14.21;72.64
70321;DHT22;61127;55.826;37.046;2023-07-31T00:49:27;14.19;72.53
70321;DHT22;61127;55.826;37.046;2023-07-31T00:52:23;14.19;72.61
70321;DHT22;61127;55.826;37.046;2023-07-31T00:54:52;14.18;72.72
70321;DHT22;61127;55.826;37.046;2023-07-31T00:57:18;14.13;72.99
70321;DHT22;61127;55.826;37.046;2023-07-31T00:59:44;14.12;73.21
70321;DHT22;61127;55.826;37.046;2023-07-31T01:02:12;14.09;73.32
70321;DHT22;61127;55.826;37.046;2023-07-31T01:04:44;14.07;73.44
70321;DHT22;61127;55.826;37.046;2023-07-31T01:07:18;14.04;73.65
70321;DHT22;61127;55.826;37.046;2023-07-31T01:10:11;14.03;73.56
70321;DHT22;61127;55.826;37.046;2023-07-31T01:12:44;13.99;73.28
70321;DHT22;61127;55.826;37.046;2023-07-31T01:15:11;14.00;73.22
70321;DHT22;61127;55.826;37.046;2023-07-31T01:17:37;13.98;73.28
70321;DHT22;61127;55.826;37.046;2023-07-31T01:20:08;13.95;73.24
70321;DHT22;61127;55.826;37.046;2023-07-31T01:28:15;13.94;73.29
70321;DHT22;61127;55.826;37.046;2023-07-31T01:30:47;13.92;73.32
70321;DHT22;61127;55.826;37.046;2023-07-31T01:33:15;13.92;73.27
70321;DHT22;61127;55.826;37.046;2023-07-31T01:35:44;13.91;73.29
70321;DHT22;61127;55.826;37.046;2023-07-31T01:38:10;13.89;73.36
70321;DHT22;61127;55.826;37.046;2023-07-31T01:40:36;13.88;73.39
70321;DHT22;61127;55.826;37.046;2023-07-31T01:43:02;13.84;73.32
70321;DHT22;61127;55.826;37.046;2023-07-31T01:45:28;13.85;73.36
70321;DHT22;61127;55.826;37.046;2023-07-31T01:47:54;13.84;73.29
70321;DHT22;61127;55.826;37.046;2023-07-31T01:50:20;13.83;73.27
70321;DHT22;61127;55.826;37.046;2023-07-31T01:52:46;13.82;73.18
70321;DHT22;61127;55.826;37.046;2023-07-31T01:55:12;13.79;73.15
70321;DHT22;61127;55.826;37.046;2023-07-31T01:57:38;13.78;73.19
70321;DHT22;61127;55.826;37.046;2023-07-31T02:00:04;13.80;73.19
70321;DHT22;61127;55.826;37.046;2023-07-31T02:02:37;13.81;73.18
70321;DHT22;61127;55.826;37.046;2023-07-31T02:05:04;13.84;73.24
70321;DHT22;61127;55.826;37.046;2023-07-31T02:07:30;13.88;73.18
70321;DHT22;61127;55.826;37.046;2023-07-31T02:09:56;13.91;73.24
70321;DHT22;61127;55.826;37.046;2023-07-31T02:12:22;13.94;73.15
70321;DHT22;61127;55.826;37.046;2023-07-31T02:14:48;13.97;73.34
70321;DHT22;61127;55.826;37.046;2023-07-31T02:17:14;14.00;73.49
70321;DHT22;61127;55.826;37.046;2023-07-31T02:20:00;14.07;73.39
70321;DHT22;61127;55.826;37.046;2023-07-31T02:22:26;14.10;73.36
70321;DHT22;61127;55.826;37.046;2023-07-31T02:24:52;14.15;73.29
70321;DHT22;61127;55.826;37.046;2023-07-31T02:27:21;14.21;73.25
70321;DHT22;61127;55.826;37.046;2023-07-31T02:29:49;14.27;73.28
70321;DHT22;61127;55.826;37.046;2023-07-31T02:32:15;14.34;73.28
70321;DHT22;61127;55.826;37.046;2023-07-31T02:34:41;14.37;73.28
70321;DHT22;61127;55.826;37.046;2023-07-31T02:37:07;14.44;73.19
70321;DHT22;61127;55.826;37.046;2023-07-31T02:39:33;14.50;73.19
70321;DHT22;61127;55.826;37.046;2023-07-31T02:42:01;14.57;73.13
70321;DHT22;61127;55.826;37.046;2023-07-31T02:44:27;14.64;73.15
70321;DHT22;61127;55.826;37.046;2023-07-31T02:46:53;14.69;73.02
70321;DHT22;61127;55.826;37.046;2023-07-31T02:49:19;14.75;72.90
70321;DHT22;61127;55.826;37.046;2023-07-31T02:51:46;14.82;72.83
70321;DHT22;61127;55.826;37.046;2023-07-31T02:54:12;14.87;72.71
70321;DHT22;61127;55.826;37.046;2023-07-31T02:56:38;14.95;72.61
70321;DHT22;61127;55.826;37.046;2023-07-31T02:59:04;15.00;72.48
70321;DHT22;61127;55.826;37.046;2023-07-31T03:01:30;15.07;72.51
70321;DHT22;61127;55.826;37.046;2023-07-31T03:03:56;15.16;72.61
70321;DHT22;61127;55.826;37.046;2023-07-31T03:06:22;15.23;72.85
70321;DHT22;61127;55.826;37.046;2023-07-31T03:08:48;15.29;72.77
70321;DHT22;61127;55.826;37.046;2023-07-31T03:11:14;15.33;72.75
70321;DHT22;61127;55.826;37.046;2023-07-31T03:13:40;15.38;72.87
70321;DHT22;61127;55.826;37.046;2023-07-31T03:16:25;15.42;72.22
70321;DHT22;61127;55.826;37.046;2023-07-31T03:18:51;15.48;72.37
70321;DHT22;61127;55.826;37.046;2023-07-31T03:21:17;15.57;72.03
70321;DHT22;61127;55.826;37.046;2023-07-31T03:23:43;15.68;71.93
70321;DHT22;61127;55.826;37.046;2023-07-31T03:26:10;15.78;71.96
70321;DHT22;61127;55.826;37.046;2023-07-31T03:28:36;15.89;71.85
70321;DHT22;61127;55.826;37.046;2023-07-31T03:31:09;15.97;71.82
70321;DHT22;61127;55.826;37.046;2023-07-31T03:33:37;16.05;71.85
70321;DHT22;61127;55.826;37.046;2023-07-31T03:36:03;16.14;72.09
70321;DHT22;61127;55.826;37.046;2023-07-31T03:38:30;16.24;71.70
70321;DHT22;61127;55.826;37.046;2023-07-31T03:40:55;16.31;71.58
70321;DHT22;61127;55.826;37.046;2023-07-31T03:43:22;16.41;71.43
70321;DHT22;61127;55.826;37.046;2023-07-31T03:45:48;16.50;70.71
70321;DHT22;61127;55.826;37.046;2023-07-31T03:48:14;16.61;70.42
70321;DHT22;61127;55.826;37.046;2023-07-31T03:50:42;16.71;69.26
70321;DHT22;61127;55.826;37.046;2023-07-31T03:53:08;16.80;69.48
70321;DHT22;61127;55.826;37.046;2023-07-31T03:55:34;16.91;69.42
70321;DHT22;61127;55.826;37.046;2023-07-31T03:58:00;17.02;69.28
70321;DHT22;61127;55.826;37.046;2023-07-31T04:00:29;17.14;68.94
70321;DHT22;61127;55.826;37.046;2023-07-31T04:02:55;17.25;68.84
70321;DHT22;61127;55.826;37.046;2023-07-31T04:05:21;17.35;68.43
70321;DHT22;61127;55.826;37.046;2023-07-31T04:07:50;17.46;67.68
70321;DHT22;61127;55.826;37.046;2023-07-31T04:10:16;17.59;67.57
70321;DHT22;61127;55.826;37.046;2023-07-31T04:12:42;17.69;67.10
70321;DHT22;61127;55.826;37.046;2023-07-31T04:15:09;17.82;67.06
70321;DHT22;61127;55.826;37.046;2023-07-31T04:17:35;17.91;66.72
70321;DHT22;61127;55.826;37.046;2023-07-31T04:20:01;18.03;66.56
70321;DHT22;61127;55.826;37.046;2023-07-31T04:22:29;0.00;0.00
70321;DHT22;61127;55.826;37.046;2023-07-31T04:24:55;0.00;0.00
70321;DHT22;61127;55.826;37.046;2023-07-31T04:27:21;0.00;0.00
70321;DHT22;61127;55.826;37.046;2023-07-31T04:29:47;0.00;0.00
70321;DHT22;61127;55.826;37.046;2023-07-31T04:32:13;0.00;0.00
70321;DHT22;61127;55.826;37.046;2023-07-31T04:34:42;0.00;0.00
70321;DHT22;61127;55.826;37.046;2023-07-31T04:37:08;0.00;0.00
70321;DHT22;61127;55.826;37.046;2023-07-31T04:39:34;0.00;0.00
70321;DHT22;61127;55.826;37.046;2023-07-31T04:42:00;0.00;0.00
70321;DHT22;61127;55.826;37.046;2023-07-31T04:44:26;0.00;0.00
70321;DHT22;61127;55.826;37.046;2023-07-31T04:46:52;0.00;61.67
70321;DHT22;61127;55.826;37.046;2023-07-31T04:49:18;20.19;60.96
70321;DHT22;61127;55.826;37.046;2023-07-31T04:51:47;20.37;60.28
70321;DHT22;61127;55.826;37.046;2023-07-31T04:54:13;20.58;60.48
70321;DHT22;61127;55.826;37.046;2023-07-31T04:56:41;20.81;59.61
70321;DHT22;61127;55.826;37.046;2023-07-31T04:59:07;21.02;59.09
70321;DHT22;61127;55.826;37.046;2023-07-31T05:01:33;21.19;55.85
70321;DHT22;61127;55.826;37.046;2023-07-31T05:03:59;21.32;55.89
70321;DHT22;61127;55.826;37.046;2023-07-31T05:06:24;21.50;57.26
70321;DHT22;61127;55.826;37.046;2023-07-31T05:08:50;0.00;0.00
70321;DHT22;61127;55.826;37.046;2023-07-31T05:11:16;0.00;0.00
70321;DHT22;61127;55.826;37.046;2023-07-31T05:13:44;0.00;0.00
70321;DHT22;61127;55.826;37.046;2023-07-31T05:16:10;0.00;0.00
70321;DHT22;61127;55.826;37.046;2023-07-31T05:18:36;0.00;0.00
70321;DHT22;61127;55.826;37.046;2023-07-31T05:21:02;0.00;0.00
70321;DHT22;61127;55.826;37.046;2023-07-31T05:23:28;0.00;0.00
70321;DHT22;61127;55.826;37.046;2023-07-31T05:25:54;0.00;0.00
70321;DHT22;61127;55.826;37.046;2023-07-31T05:28:21;0.00;0.00
70321;DHT22;61127;55.826;37.046;2023-07-31T05:30:47;0.00;0.00
70321;DHT22;61127;55.826;37.046;2023-07-31T05:33:13;0.00;0.00
70321;DHT22;61127;55.826;37.046;2023-07-31T05:35:39;0.00;0.00
70321;DHT22;61127;55.826;37.046;2023-07-31T05:38:04;0.00;0.00
70321;DHT22;61127;55.826;37.046;2023-07-31T05:40:33;0.00;0.00
70321;DHT22;61127;55.826;37.046;2023-07-31T05:42:59;0.00;0.00
70321;DHT22;61127;55.826;37.046;2023-07-31T05:45:25;0.00;0.00
70321;DHT22;61127;55.826;37.046;2023-07-31T05:47:51;0.00;0.00
70321;DHT22;61127;55.826;37.046;2023-07-31T05:50:17;0.00;0.00
70321;DHT22;61127;55.826;37.046;2023-07-31T05:52:43;0.00;0.00
70321;DHT22;61127;55.826;37.046;2023-07-31T05:55:09;0.00;0.00
70321;DHT22;61127;55.826;37.046;2023-07-31T05:57:34;0.00;0.00
70321;DHT22;61127;55.826;37.046;2023-07-31T06:00:02;0.00;0.00
70321;DHT22;61127;55.826;37.046;2023-07-31T06:02:30;0.00;0.00
70321;DHT22;61127;55.826;37.046;2023-07-31T06:04:58;0.00;0.00
70321;DHT22;61127;55.826;37.046;2023-07-31T06:07:24;0.00;0.00
70321;DHT22;61127;55.826;37.046;2023-07-31T06:09:50;0.00;0.00
70321;DHT22;61127;55.826;37.046;2023-07-31T06:12:16;0.00;0.00
70321;DHT22;61127;55.826;37.046;2023-07-31T06:14:44;0.00;0.00
70321;DHT22;61127;55.826;37.046;2023-07-31T06:17:10;0.00;0.00
70321;DHT22;61127;55.826;37.046;2023-07-31T06:19:36;0.00;0.00
70321;DHT22;61127;55.826;37.046;2023-07-31T06:22:02;0.00;0.00
70321;DHT22;61127;55.826;37.046;2023-07-31T06:24:28;0.00;0.00
70321;DHT22;61127;55.826;37.046;2023-07-31T06:26:55;0.00;0.00
70321;DHT22;61127;55.826;37.046;2023-07-31T06:29:23;0.00;0.00
70321;DHT22;61127;55.826;37.046;2023-07-31T06:31:49;0.00;0.00
70321;DHT22;61127;55.826;37.046;2023-07-31T06:34:15;0.00;0.00
70321;DHT22;61127;55.826;37.046;2023-07-31T06:36:41;0.00;0.00
70321;DHT22;61127;55.826;37.046;2023-07-31T06:39:07;0.00;0.00
70321;DHT22;61127;55.826;37.046;2023-07-31T06:41:34;0.00;0.00
70321;DHT22;61127;55.826;37.046;2023-07-31T06:44:05;0.00;0.00
70321;DHT22;61127;55.826;37.046;2023-07-31T06:46:31;0.00;0.00
70321;DHT22;61127;55.826;37.046;2023-07-31T06:48:57;0.00;0.00
70321;DHT22;61127;55.826;37.046;2023-07-31T06:51:42;0.00;0.00
70321;DHT22;61127;55.826;37.046;2023-07-31T06:54:08;0.00;0.00
70321;DHT22;61127;55.826;37.046;2023-07-31T06:56:34;0.00;0.00
70321;DHT22;61127;55.826;37.046;2023-07-31T06:59:00;0.00;0.00
70321;DHT22;61127;55.826;37.046;2023-07-31T07:01:26;0.00;0.00
70321;DHT22;61127;55.826;37.046;2023-07-31T07:03:53;0.00;0.00
70321;DHT22;61127;55.826;37.046;2023-07-31T07:06:19;0.00;0.00
70321;DHT22;61127;55.826;37.046;2023-07-31T07:08:45;0.00;0.00
70321;DHT22;61127;55.826;37.046;2023-07-31T07:11:11;0.00;0.00
70321;DHT22;61127;55.826;37.046;2023-07-31T07:13:37;0.00;0.00
70321;DHT22;61127;55.826;37.046;2023-07-31T07:16:03;0.00;0.00
70321;DHT22;61127;55.826;37.046;2023-07-31T07:18:29;0.00;0.00
70321;DHT22;61127;55.826;37.046;2023-07-31T07:20:55;0.00;0.00
70321;DHT22;61127;55.826;37.046;2023-07-31T07:23:24;0.00;0.00
70321;DHT22;61127;55.826;37.046;2023-07-31T07:25:50;0.00;0.00
70321;DHT22;61127;55.826;37.046;2023-07-31T07:28:20;0.00;0.00
70321;DHT22;61127;55.826;37.046;2023-07-31T07:30:51;0.00;0.00
70321;DHT22;61127;55.826;37.046;2023-07-31T07:33:18;0.00;0.00
70321;DHT22;61127;55.826;37.046;2023-07-31T07:35:44;0.00;0.00
70321;DHT22;61127;55.826;37.046;2023-07-31T07:38:10;0.00;0.00
70321;DHT22;61127;55.826;37.046;2023-07-31T07:40:42;0.00;0.00
70321;DHT22;61127;55.826;37.046;2023-07-31T07:43:08;0.00;0.00
70321;DHT22;61127;55.826;37.046;2023-07-31T07:45:34;0.00;0.00
70321;DHT22;61127;55.826;37.046;2023-07-31T07:48:00;0.00;0.00
70321;DHT22;61127;55.826;37.046;2023-07-31T07:50:25;0.00;0.00
70321;DHT22;61127;55.826;37.046;2023-07-31T07:52:51;0.00;0.00
70321;DHT22;61127;55.826;37.046;2023-07-31T07:55:18;0.00;0.00
70321;DHT22;61127;55.826;37.046;2023-07-31T07:57:45;0.00;0.00
70321;DHT22;61127;55.826;37.046;2023-07-31T08:00:12;0.00;0.00
70321;DHT22;61127;55.826;37.046;2023-07-31T08:02:42;0.00;0.00
70321;DHT22;61127;55.826;37.046;2023-07-31T08:05:09;0.00;0.00
70321;DHT22;61127;55.826;37.046;2023-07-31T08:07:35;0.00;0.00
70321;DHT22;61127;55.826;37.046;2023-07-31T08:10:01;0.00;0.00
70321;DHT22;61127;55.826;37.046;2023-07-31T08:12:30;0.00;0.00
70321;DHT22;61127;55.826;37.046;2023-07-31T08:14:56;0.00;0.00
70321;DHT22;61127;55.826;37.046;2023-07-31T08:17:22;0.00;0.00
70321;DHT22;61127;55.826;37.046;2023-07-31T08:19:48;0.00;0.00
70321;DHT22;61127;55.826;37.046;2023-07-31T08:22:14;0.00;0.00
70321;DHT22;61127;55.826;37.046;2023-07-31T08:24:40;0.00;0.00
70321;DHT22;61127;55.826;37.046;2023-07-31T08:27:06;0.00;0.00
70321;DHT22;61127;55.826;37.046;2023-07-31T08:29:32;0.00;0.00
70321;DHT22;61127;55.826;37.046;2023-07-31T08:31:58;0.00;0.00
70321;DHT22;61127;55.826;37.046;2023-07-31T08:34:24;0.00;0.00
70321;DHT22;61127;55.826;37.046;2023-07-31T08:36:50;0.00;0.00
70321;DHT22;61127;55.826;37.046;2023-07-31T08:39:16;0.00;0.00
70321;DHT22;61127;55.826;37.046;2023-07-31T08:41:43;0.00;0.00
70321;DHT22;61127;55.826;37.046;2023-07-31T08:44:10;0.00;0.00
70321;DHT22;61127;55.826;37.046;2023-07-31T08:46:37;0.00;0.00
70321;DHT22;61127;55.826;37.046;2023-07-31T08:49:05;0.00;0.00
70321;DHT22;61127;55.826;37.046;2023-07-31T08:51:35;0.00;0.00
70321;DHT22;61127;55.826;37.046;2023-07-31T08:54:02;0.00;0.00
70321;DHT22;61127;55.826;37.046;2023-07-31T08:56:32;0.00;0.00
70321;DHT22;61127;55.826;37.046;2023-07-31T08:59:00;0.00;0.00
70321;DHT22;61127;55.826;37.046;2023-07-31T09:01:29;0.00;0.00
70321;DHT22;61127;55.826;37.046;2023-07-31T09:03:58;0.00;0.00
70321;DHT22;61127;55.826;37.046;2023-07-31T09:06:27;0.00;0.00
70321;DHT22;61127;55.826;37.046;2023-07-31T09:08:55;0.00;0.00
70321;DHT22;61127;55.826;37.046;2023-07-31T09:11:21;0.00;0.00
70321;DHT22;61127;55.826;37.046;2023-07-31T09:13:48;0.00;0.00
70321;DHT22;61127;55.826;37.046;2023-07-31T09:16:15;0.00;0.00
70321;DHT22;61127;55.826;37.046;2023-07-31T09:19:02;0.00;0.00
70321;DHT22;61127;55.826;37.046;2023-07-31T09:21:29;0.00;0.00
70321;DHT22;61127;55.826;37.046;2023-07-31T09:23:55;0.00;20.99
70321;DHT22;61127;55.826;37.046;2023-07-31T09:26:35;35.21;23.92
70321;DHT22;61127;55.826;37.046;2023-07-31T09:29:04;36.12;20.70
70321;DHT22;61127;55.826;37.046;2023-07-31T09:34:04;34.93;20.41
70321;DHT22;61127;55.826;37.046;2023-07-31T09:36:30;35.73;19.70
70321;DHT22;61127;55.826;37.046;2023-07-31T09:39:03;37.45;20.53
70321;DHT22;61127;55.826;37.046;2023-07-31T09:41:36;36.36;16.71
70321;DHT22;61127;55.826;37.046;2023-07-31T09:44:03;35.18;21.82
70321;DHT22;61127;55.826;37.046;2023-07-31T09:46:30;34.39;22.28
70321;DHT22;61127;55.826;37.046;2023-07-31T09:49:12;33.61;22.34
70321;DHT22;61127;55.826;37.046;2023-07-31T09:51:39;35.23;23.37
70321;DHT22;61127;55.826;37.046;2023-07-31T09:54:12;37.56;20.14
70321;DHT22;61127;55.826;37.046;2023-07-31T09:56:47;0.00;0.00
70321;DHT22;61127;55.826;37.046;2023-07-31T09:59:16;0.00;0.00
70321;DHT22;61127;55.826;37.046;2023-07-31T10:01:44;0.00;0.00
70321;DHT22;61127;55.826;37.046;2023-07-31T10:04:12;0.00;0.00
70321;DHT22;61127;55.826;37.046;2023-07-31T10:06:40;0.00;0.00
70321;DHT22;61127;55.826;37.046;2023-07-31T10:09:08;0.00;0.00
70321;DHT22;61127;55.826;37.046;2023-07-31T10:11:38;0.00;0.00
70321;DHT22;61127;55.826;37.046;2023-07-31T10:14:07;0.00;0.00
70321;DHT22;61127;55.826;37.046;2023-07-31T10:16:39;0.00;0.00
70321;DHT22;61127;55.826;37.046;2023-07-31T10:19:06;0.00;0.00
70321;DHT22;61127;55.826;37.046;2023-07-31T10:21:34;0.00;0.00
70321;DHT22;61127;55.826;37.046;2023-07-31T10:24:05;0.00;0.00
70321;DHT22;61127;55.826;37.046;2023-07-31T10:26:32;0.00;0.00
70321;DHT22;61127;55.826;37.046;2023-07-31T10:29:21;0.00;0.00
70321;DHT22;61127;55.826;37.046;2023-07-31T10:31:48;0.00;0.00
70321;DHT22;61127;55.826;37.046;2023-07-31T10:34:14;0.00;0.00
70321;DHT22;61127;55.826;37.046;2023-07-31T10:36:40;0.00;0.00
70321;DHT22;61127;55.826;37.046;2023-07-31T10:39:33;0.00;0.00
70321;DHT22;61127;55.826;37.046;2023-07-31T10:41:59;0.00;15.35
70321;DHT22;61127;55.826;37.046;2023-07-31T10:44:25;39.92;16.88
70321;DHT22;61127;55.826;37.046;2023-07-31T10:46:54;39.32;16.96
70321;DHT22;61127;55.826;37.046;2023-07-31T10:49:21;38.50;18.24
70321;DHT22;61127;55.826;37.046;2023-07-31T10:51:47;37.17;18.58
70321;DHT22;61127;55.826;37.046;2023-07-31T10:54:16;36.09;18.93
70321;DHT22;61127;55.826;37.046;2023-07-31T10:56:46;34.62;20.68
70321;DHT22;61127;55.826;37.046;2023-07-31T10:59:15;33.56;22.08
70321;DHT22;61127;55.826;37.046;2023-07-31T11:01:54;32.76;23.74
70321;DHT22;61127;55.826;37.046;2023-07-31T11:04:26;32.10;24.86
70321;DHT22;61127;55.826;37.046;2023-07-31T11:07:00;31.42;25.75
70321;DHT22;61127;55.826;37.046;2023-07-31T11:09:31;30.95;26.67
70321;DHT22;61127;55.826;37.046;2023-07-31T11:11:58;30.54;27.38
70321;DHT22;61127;55.826;37.046;2023-07-31T11:14:24;30.09;27.85
70321;DHT22;61127;55.826;37.046;2023-07-31T11:16:51;29.72;29.50
70321;DHT22;61127;55.826;37.046;2023-07-31T11:19:26;29.41;30.38
70321;DHT22;61127;55.826;37.046;2023-07-31T11:21:52;29.19;30.65
70321;DHT22;61127;55.826;37.046;2023-07-31T11:24:19;29.09;31.73
70321;DHT22;61127;55.826;37.046;2023-07-31T11:26:52;28.95;31.74
70321;DHT22;61127;55.826;37.046;2023-07-31T11:29:19;28.91;32.19
70321;DHT22;61127;55.826;37.046;2023-07-31T11:31:46;29.19;31.34
70321;DHT22;61127;55.826;37.046;2023-07-31T11:34:13;29.80;32.23
70321;DHT22;61127;55.826;37.046;2023-07-31T11:36:39;0.00;0.00
70321;DHT22;61127;55.826;37.046;2023-07-31T11:39:06;33.36;28.45
70321;DHT22;61127;55.826;37.046;2023-07-31T11:41:33;33.15;28.77
70321;DHT22;61127;55.826;37.046;2023-07-31T11:44:02;32.56;27.15
70321;DHT22;61127;55.826;37.046;2023-07-31T11:46:30;32.07;27.42
70321;DHT22;61127;55.826;37.046;2023-07-31T11:48:59;31.66;29.97
70321;DHT22;61127;55.826;37.046;2023-07-31T11:51:26;31.35;29.75
70321;DHT22;61127;55.826;37.046;2023-07-31T11:53:57;31.08;30.73
70321;DHT22;61127;55.826;37.046;2023-07-31T11:56:24;30.92;31.54
70321;DHT22;61127;55.826;37.046;2023-07-31T11:58:57;30.81;32.18
70321;DHT22;61127;55.826;37.046;2023-07-31T12:01:24;30.68;28.33
70321;DHT22;61127;55.826;37.046;2023-07-31T12:03:50;32.25;29.76
70321;DHT22;61127;55.826;37.046;2023-07-31T12:06:16;35.74;23.80
70321;DHT22;61127;55.826;37.046;2023-07-31T12:08:42;35.18;24.04
70321;DHT22;61127;55.826;37.046;2023-07-31T12:11:09;34.04;24.95
70321;DHT22;61127;55.826;37.046;2023-07-31T12:13:35;33.14;25.59
70321;DHT22;61127;55.826;37.046;2023-07-31T12:16:03;32.50;27.42
70321;DHT22;61127;55.826;37.046;2023-07-31T12:18:34;32.00;28.53
70321;DHT22;61127;55.826;37.046;2023-07-31T12:21:02;31.57;28.57
70321;DHT22;61127;55.826;37.046;2023-07-31T12:23:31;31.04;27.22
70321;DHT22;61127;55.826;37.046;2023-07-31T12:26:10;30.64;28.64
70321;DHT22;61127;55.826;37.046;2023-07-31T12:28:47;30.36;30.43
70321;DHT22;61127;55.826;37.046;2023-07-31T12:33:43;29.86;31.23
70321;DHT22;61127;55.826;37.046;2023-07-31T12:36:14;29.63;32.19
70321;DHT22;61127;55.826;37.046;2023-07-31T12:38:40;29.35;32.58
70321;DHT22;61127;55.826;37.046;2023-07-31T12:41:06;28.71;33.67
70321;DHT22;61127;55.826;37.046;2023-07-31T12:43:34;28.12;35.31
70321;DHT22;61127;55.826;37.046;2023-07-31T12:46:00;27.67;36.21
70321;DHT22;61127;55.826;37.046;2023-07-31T12:48:26;27.37;37.73
70321;DHT22;61127;55.826;37.046;2023-07-31T12:50:52;27.08;38.24
70321;DHT22;61127;55.826;37.046;2023-07-31T12:53:18;26.82;39.31
70321;DHT22;61127;55.826;37.046;2023-07-31T12:55:44;26.55;39.11
70321;DHT22;61127;55.826;37.046;2023-07-31T12:58:11;26.39;40.78
70321;DHT22;61127;55.826;37.046;2023-07-31T13:00:36;26.37;39.65
70321;DHT22;61127;55.826;37.046;2023-07-31T13:03:03;26.26;38.75
70321;DHT22;61127;55.826;37.046;2023-07-31T13:05:29;26.21;39.68
70321;DHT22;61127;55.826;37.046;2023-07-31T13:07:56;26.42;40.31
70321;DHT22;61127;55.826;37.046;2023-07-31T13:10:25;26.71;41.83
70321;DHT22;61127;55.826;37.046;2023-07-31T13:12:54;26.93;40.23
70321;DHT22;61127;55.826;37.046;2023-07-31T13:15:20;27.09;39.91
70321;DHT22;61127;55.826;37.046;2023-07-31T13:17:46;27.40;39.62
70321;DHT22;61127;55.826;37.046;2023-07-31T13:20:12;27.60;39.70
70321;DHT22;61127;55.826;37.046;2023-07-31T13:22:38;27.79;39.04
70321;DHT22;61127;55.826;37.046;2023-07-31T13:25:04;28.08;38.94
70321;DHT22;61127;55.826;37.046;2023-07-31T13:27:31;28.55;37.69
70321;DHT22;61127;55.826;37.046;2023-07-31T13:29:57;29.57;36.86
70321;DHT22;61127;55.826;37.046;2023-07-31T13:32:22;29.60;37.21
70321;DHT22;61127;55.826;37.046;2023-07-31T13:34:49;29.54;35.60
70321;DHT22;61127;55.826;37.046;2023-07-31T13:37:15;29.21;35.76
70321;DHT22;61127;55.826;37.046;2023-07-31T13:39:42;29.02;35.84
70321;DHT22;61127;55.826;37.046;2023-07-31T13:42:08;28.77;35.85
70321;DHT22;61127;55.826;37.046;2023-07-31T13:44:35;28.93;36.39
70321;DHT22;61127;55.826;37.046;2023-07-31T13:47:01;29.65;33.79
70321;DHT22;61127;55.826;37.046;2023-07-31T13:49:28;30.17;34.74
70321;DHT22;61127;55.826;37.046;2023-07-31T13:51:54;29.93;34.27
70321;DHT22;61127;55.826;37.046;2023-07-31T13:54:20;29.72;34.75
70321;DHT22;61127;55.826;37.046;2023-07-31T13:56:46;29.33;35.06
70321;DHT22;61127;55.826;37.046;2023-07-31T13:59:12;28.79;35.14
70321;DHT22;61127;55.826;37.046;2023-07-31T14:01:39;28.40;36.97
70321;DHT22;61127;55.826;37.046;2023-07-31T14:04:05;28.29;36.88
70321;DHT22;61127;55.826;37.046;2023-07-31T14:06:31;28.27;37.50
70321;DHT22;61127;55.826;37.046;2023-07-31T14:08:57;28.09;37.58
70321;DHT22;61127;55.826;37.046;2023-07-31T14:11:23;27.72;38.63
70321;DHT22;61127;55.826;37.046;2023-07-31T14:13:50;27.44;40.36
70321;DHT22;61127;55.826;37.046;2023-07-31T14:16:17;27.13;40.50
70321;DHT22;61127;55.826;37.046;2023-07-31T14:18:43;26.93;41.10
70321;DHT22;61127;55.826;37.046;2023-07-31T14:21:09;26.76;40.52
70321;DHT22;61127;55.826;37.046;2023-07-31T14:23:35;26.63;41.77
70321;DHT22;61127;55.826;37.046;2023-07-31T14:26:01;26.66;40.70
70321;DHT22;61127;55.826;37.046;2023-07-31T14:28:27;26.68;41.07
70321;DHT22;61127;55.826;37.046;2023-07-31T14:30:53;26.73;41.49
70321;DHT22;61127;55.826;37.046;2023-07-31T14:33:19;26.66;41.46
70321;DHT22;61127;55.826;37.046;2023-07-31T14:35:45;26.57;40.88
70321;DHT22;61127;55.826;37.046;2023-07-31T14:38:11;26.46;41.45
70321;DHT22;61127;55.826;37.046;2023-07-31T14:40:36;26.33;41.10
70321;DHT22;61127;55.826;37.046;2023-07-31T14:43:04;26.26;41.26
70321;DHT22;61127;55.826;37.046;2023-07-31T14:45:32;26.13;41.24
70321;DHT22;61127;55.826;37.046;2023-07-31T14:47:58;26.11;41.80
70321;DHT22;61127;55.826;37.046;2023-07-31T14:50:25;26.01;41.02
70321;DHT22;61127;55.826;37.046;2023-07-31T14:52:51;25.96;41.51
70321;DHT22;61127;55.826;37.046;2023-07-31T14:55:18;25.91;41.77
70321;DHT22;61127;55.826;37.046;2023-07-31T14:57:45;25.80;41.78
70321;DHT22;61127;55.826;37.046;2023-07-31T15:00:12;25.73;41.88
70321;DHT22;61127;55.826;37.046;2023-07-31T15:02:38;25.59;42.18
70321;DHT22;61127;55.826;37.046;2023-07-31T15:05:05;25.47;42.07
70321;DHT22;61127;55.826;37.046;2023-07-31T15:07:32;25.37;42.38
70321;DHT22;61127;55.826;37.046;2023-07-31T15:09:58;25.28;42.46
70321;DHT22;61127;55.826;37.046;2023-07-31T15:12:24;25.19;42.48
70321;DHT22;61127;55.826;37.046;2023-07-31T15:14:51;25.16;42.91
70321;DHT22;61127;55.826;37.046;2023-07-31T15:17:17;25.10;42.81
70321;DHT22;61127;55.826;37.046;2023-07-31T15:19:43;25.15;42.98
70321;DHT22;61127;55.826;37.046;2023-07-31T15:22:09;25.20;43.53
70321;DHT22;61127;55.826;37.046;2023-07-31T15:24:35;25.22;43.52
70321;DHT22;61127;55.826;37.046;2023-07-31T15:27:01;25.29;43.64
70321;DHT22;61127;55.826;37.046;2023-07-31T15:29:29;25.36;44.06
70321;DHT22;61127;55.826;37.046;2023-07-31T15:31:55;25.40;43.81
70321;DHT22;61127;55.826;37.046;2023-07-31T15:34:21;25.37;43.51
70321;DHT22;61127;55.826;37.046;2023-07-31T15:36:48;25.35;43.76
70321;DHT22;61127;55.826;37.046;2023-07-31T15:39:14;25.31;43.87